createdAt,value
2019-02-14T00:01:09.249Z,5.50
2019-02-14T00:03:36.758Z,8.00
2019-02-14T00:06:04.042Z,14.97
2019-02-14T00:08:31.282Z,9.07
2019-02-14T00:10:58.534Z,11.27
2019-02-14T00:13:25.806Z,6.90
2019-02-14T00:15:53.078Z,8.47
2019-02-14T00:18:20.603Z,6.00
2019-02-14T00:20:48.114Z,6.20
2019-02-14T00:23:15.381Z,6.57
2019-02-14T00:25:42.883Z,9.73
2019-02-14T00:28:10.240Z,7.80
2019-02-14T00:30:37.582Z,6.20
2019-02-14T00:33:04.833Z,6.33
2019-02-14T00:35:32.103Z,2.97
2019-02-14T00:37:59.371Z,4.57
2019-02-14T00:40:26.646Z,8.90
2019-02-14T00:42:54.138Z,4.40
2019-02-14T00:45:21.401Z,9.13
2019-02-14T00:47:48.646Z,8.13
2019-02-14T00:50:15.920Z,6.50
2019-02-14T00:52:43.198Z,4.10
2019-02-14T00:55:10.448Z,4.93
2019-02-14T00:57:37.694Z,5.00
2019-02-14T01:00:06.502Z,6.40
2019-02-14T01:02:33.760Z,5.03
2019-02-14T01:05:01.027Z,10.27
2019-02-14T01:07:28.311Z,8.87
2019-02-14T01:09:55.554Z,4.83
2019-02-14T01:12:22.822Z,3.90
2019-02-14T01:14:50.056Z,6.43
2019-02-14T01:17:17.326Z,8.80
2019-02-14T01:19:44.591Z,6.37
2019-02-14T01:22:11.838Z,6.30
2019-02-14T01:24:39.113Z,13.30
2019-02-14T01:27:06.656Z,9.80
2019-02-14T01:29:33.903Z,4.67
2019-02-14T01:32:01.177Z,9.10
2019-02-14T01:34:28.426Z,4.60
2019-02-14T01:36:55.715Z,6.70
2019-02-14T01:39:22.955Z,8.50
2019-02-14T01:41:50.200Z,8.00
2019-02-14T01:44:17.742Z,8.93
2019-02-14T01:46:45.015Z,7.87
2019-02-14T01:49:12.534Z,9.80
2019-02-14T01:51:39.816Z,11.13
2019-02-14T01:54:07.185Z,7.83
2019-02-14T01:56:34.430Z,10.30
2019-02-14T01:59:01.674Z,9.07
2019-02-14T02:01:28.963Z,10.10
2019-02-14T02:03:56.204Z,8.10
2019-02-14T02:06:23.478Z,7.63
2019-02-14T02:08:50.719Z,8.50
2019-02-14T02:11:18.002Z,7.10
2019-02-14T02:13:45.238Z,12.13
2019-02-14T02:16:12.514Z,7.50
2019-02-14T02:18:39.830Z,21.83
2019-02-14T02:21:07.097Z,5.33
2019-02-14T02:23:34.399Z,11.03
2019-02-14T02:26:01.682Z,8.73
2019-02-14T02:28:29.038Z,10.33
2019-02-14T02:30:56.570Z,8.00
2019-02-14T02:33:23.855Z,8.50
2019-02-14T02:35:59.996Z,10.10
2019-02-14T02:38:20.439Z,7.80
2019-02-14T02:40:47.683Z,7.53
2019-02-14T02:43:14.995Z,7.63
2019-02-14T02:45:42.287Z,10.70
2019-02-14T02:48:09.560Z,6.17
2019-02-14T02:50:36.801Z,12.43
2019-02-14T02:53:04.081Z,10.70
2019-02-14T02:55:31.341Z,7.70
2019-02-14T02:57:58.616Z,6.70
2019-02-14T03:00:25.960Z,8.30
2019-02-14T03:02:53.207Z,7.57
2019-02-14T03:05:20.479Z,9.07
2019-02-14T03:07:47.753Z,8.70
2019-02-14T03:10:15.061Z,8.27
2019-02-14T03:12:42.342Z,7.53
2019-02-14T03:15:10.787Z,8.70
2019-02-14T03:17:38.032Z,6.90
2019-02-14T03:20:06.975Z,6.00
2019-02-14T03:22:34.220Z,9.23
2019-02-14T03:25:01.489Z,8.60
2019-02-14T03:27:28.733Z,12.60
2019-02-14T03:29:56.008Z,8.67
2019-02-14T03:32:23.259Z,7.60
2019-02-14T03:34:50.597Z,8.53
2019-02-14T03:37:17.837Z,7.73
2019-02-14T03:39:45.174Z,5.40
2019-02-14T03:42:12.440Z,5.30
2019-02-14T03:44:39.677Z,8.20
2019-02-14T03:47:06.949Z,7.97
2019-02-14T03:49:34.252Z,5.40
2019-02-14T03:52:01.546Z,6.40
2019-02-14T03:54:28.830Z,7.07
2019-02-14T03:56:56.077Z,9.23
2019-02-14T03:59:23.317Z,6.33
2019-02-14T04:01:50.598Z,12.27
2019-02-14T04:04:17.842Z,7.83
2019-02-14T04:06:45.081Z,7.50
2019-02-14T04:09:12.354Z,5.80
2019-02-14T04:11:39.635Z,6.80
2019-02-14T04:14:06.911Z,6.23
2019-02-14T04:16:34.154Z,4.40
2019-02-14T04:19:01.398Z,4.67
2019-02-14T04:21:28.741Z,6.10
2019-02-14T04:23:55.981Z,8.00
2019-02-14T04:26:23.270Z,3.43
2019-02-14T04:28:50.514Z,5.93
2019-02-14T04:31:18.010Z,5.87
2019-02-14T04:33:45.282Z,6.73
2019-02-14T04:36:12.530Z,3.23
2019-02-14T04:38:39.806Z,7.03
2019-02-14T04:41:07.073Z,7.97
2019-02-14T04:43:34.337Z,6.10
2019-02-14T04:46:01.605Z,7.97
2019-02-14T04:48:28.879Z,4.40
2019-02-14T04:50:56.141Z,4.00
2019-02-14T04:53:23.660Z,4.33
2019-02-14T04:55:50.922Z,4.83
2019-02-14T04:58:18.204Z,5.93
2019-02-14T05:00:45.445Z,5.17
2019-02-14T05:03:12.719Z,3.50
2019-02-14T05:05:39.963Z,3.70
2019-02-14T05:08:07.246Z,5.70
2019-02-14T05:10:34.491Z,3.90
2019-02-14T05:13:01.743Z,4.57
2019-02-14T05:15:29.017Z,4.87
2019-02-14T05:17:56.346Z,5.53
2019-02-14T05:20:23.883Z,4.07
2019-02-14T05:22:51.205Z,4.97
2019-02-14T05:25:18.474Z,6.07
2019-02-14T05:27:45.781Z,5.37
2019-02-14T05:30:14.026Z,3.53
2019-02-14T05:32:41.274Z,6.90
2019-02-14T05:35:08.550Z,5.73
2019-02-14T05:37:35.796Z,3.30
2019-02-14T05:40:03.330Z,4.00
2019-02-14T05:42:30.614Z,3.70
2019-02-14T05:44:57.977Z,10.53
2019-02-14T05:47:25.232Z,3.97
2019-02-14T05:49:52.546Z,5.83
2019-02-14T05:52:19.810Z,5.50
2019-02-14T05:54:47.057Z,9.60
2019-02-14T05:57:14.326Z,3.77
2019-02-14T05:59:41.571Z,3.23
2019-02-14T06:02:08.845Z,4.70
2019-02-14T06:04:36.355Z,6.00
2019-02-14T06:07:03.630Z,4.87
2019-02-14T06:09:30.872Z,3.83
2019-02-14T06:11:58.146Z,5.23
2019-02-14T06:14:25.392Z,3.03
2019-02-14T06:16:52.666Z,3.23
2019-02-14T06:19:19.905Z,3.13
2019-02-14T06:21:47.226Z,6.77
2019-02-14T06:24:14.745Z,4.63
2019-02-14T06:26:41.989Z,6.93
2019-02-14T06:29:09.276Z,7.90
2019-02-14T06:31:36.513Z,6.73
2019-02-14T06:34:04.030Z,4.03
2019-02-14T06:36:31.583Z,5.70
2019-02-14T06:38:58.861Z,6.10
2019-02-14T06:41:26.099Z,8.60
2019-02-14T06:43:53.408Z,9.50
2019-02-14T06:46:20.716Z,3.70
2019-02-14T06:48:47.988Z,3.17
2019-02-14T06:51:15.266Z,2.23
2019-02-14T06:53:42.778Z,3.97
2019-02-14T06:56:10.059Z,3.40
2019-02-14T06:58:37.300Z,2.80
2019-02-14T07:01:04.563Z,3.43
2019-02-14T07:03:31.833Z,6.63
2019-02-14T07:05:59.199Z,3.77
2019-02-14T07:08:26.470Z,2.93
2019-02-14T07:10:53.709Z,3.20
2019-02-14T07:13:20.989Z,1.80
2019-02-14T07:15:48.260Z,6.00
2019-02-14T07:18:15.502Z,3.40
2019-02-14T07:20:42.808Z,2.80
2019-02-14T07:23:10.160Z,3.87
2019-02-14T07:25:37.445Z,3.70
2019-02-14T07:28:04.997Z,5.53
2019-02-14T07:30:32.556Z,5.47
2019-02-14T07:32:59.819Z,3.83
2019-02-14T07:35:27.092Z,4.80
2019-02-14T07:37:54.364Z,2.90
2019-02-14T07:40:21.677Z,6.73
2019-02-14T07:42:48.952Z,3.47
2019-02-14T07:45:16.932Z,5.17
2019-02-14T07:47:44.201Z,5.57
2019-02-14T07:50:12.330Z,5.90
2019-02-14T07:52:39.817Z,5.83
2019-02-14T07:55:08.219Z,4.53
2019-02-14T07:57:35.550Z,5.73
2019-02-14T08:00:03.566Z,4.80
2019-02-14T08:02:30.842Z,5.03
2019-02-14T08:04:58.086Z,6.80
2019-02-14T08:07:25.363Z,6.20
2019-02-14T08:09:52.607Z,9.23
2019-02-14T08:12:19.869Z,8.83
2019-02-14T08:14:47.146Z,4.93
2019-02-14T08:17:14.685Z,2.60
2019-02-14T08:19:41.934Z,12.00
2019-02-14T08:22:09.208Z,7.57
2019-02-14T08:24:36.457Z,8.77
2019-02-14T08:27:03.725Z,22.33
2019-02-14T08:29:30.977Z,24.70
2019-02-14T08:31:58.266Z,23.20
2019-02-14T08:34:25.514Z,17.17
2019-02-14T08:36:52.791Z,17.27
2019-02-14T08:39:20.065Z,17.83
2019-02-14T08:41:47.558Z,12.83
2019-02-14T08:44:14.834Z,9.53
2019-02-14T08:46:42.106Z,4.17
2019-02-14T08:49:09.622Z,3.70
2019-02-14T08:51:37.156Z,2.67
2019-02-14T08:54:04.677Z,3.23
2019-02-14T08:56:31.969Z,3.10
2019-02-14T08:58:59.214Z,1.77
2019-02-14T09:01:26.743Z,1.73
2019-02-14T09:03:53.992Z,2.60
2019-02-14T09:06:21.267Z,2.60
2019-02-14T09:08:48.511Z,3.77
2019-02-14T09:11:15.770Z,3.27
2019-02-14T09:13:43.036Z,2.30
2019-02-14T09:16:10.307Z,3.30
2019-02-14T09:18:37.552Z,1.97
2019-02-14T09:21:04.817Z,2.53
2019-02-14T09:23:32.306Z,5.47
2019-02-14T09:25:59.837Z,2.83
2019-02-14T09:28:27.104Z,4.80
2019-02-14T09:30:54.384Z,3.03
2019-02-14T09:33:21.629Z,6.63
2019-02-14T09:35:48.894Z,2.60
2019-02-14T09:38:16.205Z,5.00
2019-02-14T09:40:43.494Z,2.90
2019-02-14T09:43:10.740Z,3.23
2019-02-14T09:45:38.078Z,3.20
2019-02-14T09:48:05.322Z,3.10
2019-02-14T09:50:32.594Z,2.20
2019-02-14T09:52:59.839Z,2.70
2019-02-14T09:55:27.123Z,4.07
2019-02-14T09:57:54.485Z,2.63
2019-02-14T10:00:21.812Z,3.10
2019-02-14T10:02:49.320Z,10.00
2019-02-14T10:05:16.582Z,6.70
2019-02-14T10:07:43.885Z,7.60
2019-02-14T10:10:12.362Z,13.00
2019-02-14T10:12:39.615Z,9.60
2019-02-14T10:15:07.847Z,10.90
2019-02-14T10:17:35.120Z,11.47
2019-02-14T10:20:02.375Z,14.27
2019-02-14T10:22:30.100Z,12.60
2019-02-14T10:24:57.639Z,11.40
2019-02-14T10:27:25.099Z,12.07
2019-02-14T10:29:52.418Z,9.10
2019-02-14T10:32:19.699Z,12.73
2019-02-14T10:34:47.239Z,24.83
2019-02-14T10:37:14.485Z,21.50
2019-02-14T10:39:41.998Z,22.23
2019-02-14T10:42:09.606Z,17.40
2019-02-14T10:44:36.862Z,38.40
2019-02-14T10:47:04.406Z,47.60
2019-02-14T10:49:31.954Z,76.00
2019-02-14T10:51:59.532Z,118.10
2019-02-14T10:54:26.819Z,53.67
2019-02-14T10:56:54.074Z,52.37
2019-02-14T10:59:21.343Z,41.33
2019-02-14T11:01:48.885Z,25.47
2019-02-14T11:04:16.121Z,31.80
2019-02-14T11:06:43.407Z,24.63
2019-02-14T11:09:10.920Z,23.40
2019-02-14T11:11:38.202Z,26.30
2019-02-14T11:14:05.612Z,14.67
2019-02-14T11:16:32.891Z,10.50
2019-02-14T11:19:00.144Z,12.77
2019-02-14T11:21:27.421Z,11.17
2019-02-14T11:23:54.673Z,11.53
2019-02-14T11:26:21.947Z,10.67
2019-02-14T11:28:49.238Z,9.17
2019-02-14T11:31:16.489Z,10.90
2019-02-14T11:33:43.774Z,10.47
2019-02-14T11:36:11.299Z,9.93
2019-02-14T11:38:40.666Z,12.17
2019-02-14T11:41:07.541Z,10.70
2019-02-14T11:43:34.813Z,7.83
2019-02-14T11:46:02.083Z,8.23
2019-02-14T11:48:29.330Z,6.47
2019-02-14T11:50:56.610Z,9.93
2019-02-14T11:53:23.858Z,11.53
2019-02-14T11:55:51.110Z,10.10
2019-02-14T11:58:18.390Z,11.63
2019-02-14T12:00:45.638Z,12.10
2019-02-14T12:03:13.190Z,11.60
2019-02-14T12:05:40.439Z,12.47
2019-02-14T12:08:09.453Z,9.30
2019-02-14T12:10:36.673Z,9.80
2019-02-14T12:13:03.952Z,13.10
2019-02-14T12:15:31.490Z,9.63
2019-02-14T12:17:58.725Z,3.70
2019-02-14T12:20:26.005Z,5.80
2019-02-14T12:22:53.349Z,2.50
2019-02-14T12:25:22.143Z,2.70
2019-02-14T12:27:49.410Z,2.20
2019-02-14T12:30:16.653Z,1.50
2019-02-14T12:32:43.921Z,1.30
2019-02-14T12:35:11.506Z,3.50
2019-02-14T12:37:38.773Z,5.77
2019-02-14T12:40:07.824Z,3.00
2019-02-14T12:42:35.094Z,2.83
2019-02-14T12:45:02.346Z,3.87
2019-02-14T12:47:30.247Z,3.33
2019-02-14T12:49:57.560Z,6.13
2019-02-14T12:52:24.853Z,1.97
2019-02-14T12:54:52.374Z,3.07
2019-02-14T12:57:19.654Z,3.60
2019-02-14T12:59:46.905Z,2.33
2019-02-14T13:02:14.433Z,2.17
2019-02-14T13:04:42.106Z,2.50
2019-02-14T13:07:09.347Z,2.10
2019-02-14T13:09:36.591Z,2.50
2019-02-14T13:12:03.870Z,4.23
2019-02-14T13:14:31.117Z,3.70
2019-02-14T13:16:58.391Z,2.37
2019-02-14T13:19:25.657Z,2.60
2019-02-14T13:21:52.940Z,2.90
2019-02-14T13:24:20.221Z,4.57
2019-02-14T13:26:47.650Z,3.10
2019-02-14T13:29:15.181Z,3.57
2019-02-14T13:31:42.449Z,4.90
2019-02-14T13:34:09.777Z,4.47
2019-02-14T13:36:37.048Z,4.00
2019-02-14T13:39:04.933Z,2.53
2019-02-14T13:41:32.245Z,4.10
2019-02-14T13:43:59.531Z,13.83
2019-02-14T13:46:26.832Z,8.00
2019-02-14T13:48:54.150Z,11.77
2019-02-14T13:51:21.399Z,9.37
2019-02-14T13:53:48.662Z,8.57
2019-02-14T13:56:15.935Z,6.73
2019-02-14T13:58:43.184Z,6.17
2019-02-14T14:01:10.458Z,3.30
2019-02-14T14:03:37.734Z,5.00
2019-02-14T14:06:05.083Z,4.23
2019-02-14T14:08:32.342Z,10.40
2019-02-14T14:10:59.613Z,7.00
2019-02-14T14:13:26.861Z,9.20
2019-02-14T14:15:54.134Z,5.70
2019-02-14T14:18:21.655Z,6.80
2019-02-14T14:20:48.932Z,3.60
2019-02-14T14:23:16.431Z,5.83
2019-02-14T14:25:43.708Z,5.00
2019-02-14T14:28:10.966Z,6.53
2019-02-14T14:30:38.216Z,5.30
2019-02-14T14:33:05.485Z,4.83
2019-02-14T14:35:32.739Z,5.30
2019-02-14T14:38:00.004Z,4.43
2019-02-14T14:40:27.526Z,3.27
2019-02-14T14:42:56.436Z,3.53
2019-02-14T14:45:31.026Z,5.10
2019-02-14T14:47:58.562Z,3.87
2019-02-14T14:50:25.806Z,4.70
2019-02-14T14:52:53.081Z,5.07
2019-02-14T14:55:20.327Z,5.73
2019-02-14T14:57:47.597Z,3.90
2019-02-14T15:00:14.901Z,3.93
2019-02-14T15:02:42.240Z,5.03
2019-02-14T15:05:10.404Z,5.07
2019-02-14T15:07:37.678Z,3.97
2019-02-14T15:10:05.490Z,4.63
2019-02-14T15:12:32.768Z,4.23
2019-02-14T15:15:00.001Z,3.50
2019-02-14T15:17:27.280Z,10.30
2019-02-14T15:19:54.812Z,4.10
2019-02-14T15:22:22.053Z,4.10
2019-02-14T15:24:49.326Z,4.40
2019-02-14T15:27:16.606Z,5.20
2019-02-14T15:29:43.846Z,5.40
2019-02-14T15:32:11.095Z,3.90
2019-02-14T15:34:38.619Z,5.90
2019-02-14T15:37:05.895Z,4.67
2019-02-14T15:39:33.142Z,7.33
2019-02-14T15:42:00.409Z,4.03
2019-02-14T15:44:27.651Z,5.80
2019-02-14T15:46:54.927Z,3.77
2019-02-14T15:49:23.120Z,7.47
2019-02-14T15:51:51.422Z,5.13
2019-02-14T15:54:18.702Z,6.27
2019-02-14T15:56:45.941Z,5.50
2019-02-14T15:59:13.190Z,4.30
2019-02-14T16:01:42.693Z,2.87
2019-02-14T16:04:09.958Z,4.47
2019-02-14T16:06:37.498Z,5.17
2019-02-14T16:09:05.337Z,6.90
2019-02-14T16:11:34.005Z,4.87
2019-02-14T16:14:01.577Z,6.23
2019-02-14T16:16:28.837Z,3.40
2019-02-14T16:18:56.086Z,5.80
2019-02-14T16:21:23.423Z,6.90
2019-02-14T16:23:51.379Z,5.63
2019-02-14T16:26:19.711Z,4.13
2019-02-14T16:28:47.018Z,5.70
2019-02-14T16:31:14.542Z,5.37
2019-02-14T16:33:41.822Z,4.53
2019-02-14T16:36:09.062Z,8.53
2019-02-14T16:38:37.196Z,4.83
2019-02-14T16:41:04.491Z,5.80
2019-02-14T16:43:31.997Z,3.77
2019-02-14T16:45:59.244Z,4.70
2019-02-14T16:48:26.523Z,5.93
2019-02-14T16:50:53.807Z,2.83
2019-02-14T16:53:21.094Z,4.07
2019-02-14T16:55:48.366Z,3.57
2019-02-14T16:58:15.610Z,6.07
2019-02-14T17:00:42.883Z,3.27
2019-02-14T17:03:10.134Z,10.33
2019-02-14T17:05:37.382Z,6.33
2019-02-14T17:08:04.665Z,6.40
2019-02-14T17:10:37.012Z,3.90
2019-02-14T17:13:00.901Z,4.50
2019-02-14T17:15:28.290Z,7.73
2019-02-14T17:17:55.737Z,5.37
2019-02-14T17:20:23.237Z,5.90
2019-02-14T17:22:50.506Z,4.57
2019-02-14T17:25:17.750Z,3.73
2019-02-14T17:27:45.104Z,6.80
2019-02-14T17:30:12.701Z,7.53
2019-02-14T17:32:40.010Z,5.67
2019-02-14T17:35:07.459Z,3.70
2019-02-14T17:37:34.735Z,3.23
2019-02-14T17:40:02.002Z,3.77
2019-02-14T17:42:29.282Z,7.20
2019-02-14T17:44:56.522Z,5.77
2019-02-14T17:47:23.797Z,2.20
2019-02-14T17:49:51.336Z,3.30
2019-02-14T17:52:18.579Z,5.20
2019-02-14T17:54:45.846Z,3.43
2019-02-14T17:57:13.086Z,2.30
2019-02-14T17:59:40.618Z,7.33
2019-02-14T18:02:07.865Z,2.57
2019-02-14T18:04:35.138Z,4.43
2019-02-14T18:07:02.458Z,4.80
2019-02-14T18:09:29.970Z,2.33
2019-02-14T18:11:57.261Z,5.13
2019-02-14T18:14:24.497Z,2.27
2019-02-14T18:16:51.746Z,4.00
2019-02-14T18:19:19.268Z,2.70
2019-02-14T18:21:46.614Z,2.17
2019-02-14T18:24:13.858Z,1.43
2019-02-14T18:26:41.133Z,3.40
2019-02-14T18:29:08.411Z,3.03
2019-02-14T18:31:35.677Z,4.30
2019-02-14T18:34:03.181Z,2.13
2019-02-14T18:36:30.529Z,1.30
2019-02-14T18:38:57.778Z,2.60
2019-02-14T18:41:25.458Z,3.43
2019-02-14T18:43:52.829Z,2.00
2019-02-14T18:46:20.079Z,1.47
2019-02-14T18:48:47.363Z,1.00
2019-02-14T18:51:14.606Z,3.43
2019-02-14T18:53:41.846Z,2.60
2019-02-14T18:56:09.118Z,1.30
2019-02-14T18:58:36.394Z,8.73
2019-02-14T19:01:03.702Z,2.27
2019-02-14T19:03:31.060Z,4.00
2019-02-14T19:05:58.306Z,2.50
2019-02-14T19:08:25.571Z,1.47
2019-02-14T19:10:52.814Z,4.30
2019-02-14T19:13:20.098Z,2.07
2019-02-14T19:15:47.426Z,2.17
2019-02-14T19:18:14.695Z,2.07
2019-02-14T19:20:42.229Z,2.60
2019-02-14T19:23:09.806Z,3.30
2019-02-14T19:25:37.346Z,5.30
2019-02-14T19:28:04.591Z,2.37
2019-02-14T19:30:31.871Z,4.70
2019-02-14T19:32:59.163Z,2.93
2019-02-14T19:35:26.401Z,2.90
2019-02-14T19:37:53.935Z,5.07
2019-02-14T19:40:21.179Z,2.43
2019-02-14T19:42:48.461Z,3.60
2019-02-14T19:45:16.409Z,2.00
2019-02-14T19:47:43.902Z,1.47
2019-02-14T19:50:12.205Z,2.80
2019-02-14T19:52:39.593Z,2.10
2019-02-14T19:55:08.749Z,1.57
2019-02-14T19:57:36.337Z,2.50
2019-02-14T20:00:05.584Z,2.50
2019-02-14T20:02:32.858Z,3.27
2019-02-14T20:05:00.308Z,1.17
2019-02-14T20:07:27.899Z,2.60
2019-02-14T20:09:55.475Z,2.03
2019-02-14T20:12:22.742Z,1.93
2019-02-14T20:14:50.021Z,1.10
2019-02-14T20:17:17.266Z,1.37
2019-02-14T20:19:44.808Z,1.40
2019-02-14T20:22:12.678Z,1.53
2019-02-14T20:24:40.702Z,3.00
2019-02-14T20:27:08.255Z,2.00
2019-02-14T20:29:35.494Z,0.80
2019-02-14T20:32:02.777Z,1.10
2019-02-14T20:34:30.297Z,2.37
2019-02-14T20:36:57.836Z,0.97
2019-02-14T20:39:25.105Z,1.87
2019-02-14T20:41:52.634Z,0.97
2019-02-14T20:44:19.883Z,1.13
2019-02-14T20:46:47.137Z,1.17
2019-02-14T20:49:14.482Z,1.23
2019-02-14T20:51:41.759Z,2.60
2019-02-14T20:54:09.014Z,1.03
2019-02-14T20:56:36.285Z,1.00
2019-02-14T20:59:03.676Z,1.40
2019-02-14T21:01:30.950Z,1.53
2019-02-14T21:03:58.226Z,2.47
2019-02-14T21:06:25.479Z,1.73
2019-02-14T21:08:53.003Z,0.93
2019-02-14T21:11:20.264Z,2.97
2019-02-14T21:13:47.506Z,1.23
2019-02-14T21:16:15.041Z,3.30
2019-02-14T21:18:42.302Z,1.03
2019-02-14T21:21:09.816Z,1.90
2019-02-14T21:23:37.161Z,1.17
2019-02-14T21:26:04.497Z,1.43
2019-02-14T21:28:32.068Z,1.40
2019-02-14T21:30:59.346Z,1.50
2019-02-14T21:33:26.604Z,1.40
2019-02-14T21:35:54.022Z,3.03
2019-02-14T21:38:21.414Z,2.03
2019-02-14T21:40:48.689Z,2.10
2019-02-14T21:43:16.025Z,2.33
2019-02-14T21:45:43.359Z,2.97
2019-02-14T21:48:10.857Z,3.23
2019-02-14T21:50:38.174Z,2.50
2019-02-14T21:53:05.414Z,3.93
2019-02-14T21:55:32.700Z,4.03
2019-02-14T21:58:03.922Z,3.23
2019-02-14T22:00:29.137Z,6.13
2019-02-14T22:02:56.468Z,2.77
2019-02-14T22:05:26.001Z,4.63
2019-02-14T22:07:52.918Z,3.00
2019-02-14T22:10:20.203Z,5.80
2019-02-14T22:12:47.457Z,4.77
2019-02-14T22:15:16.025Z,5.93
2019-02-14T22:17:43.292Z,3.90
2019-02-14T22:20:10.639Z,4.20
2019-02-14T22:22:37.960Z,5.60
2019-02-14T22:25:06.775Z,2.80
2019-02-14T22:27:34.050Z,2.97
2019-02-14T22:30:01.326Z,3.13
2019-02-14T22:32:28.848Z,2.90
2019-02-14T22:34:56.109Z,9.57
2019-02-14T22:37:23.358Z,5.30
2019-02-14T22:39:50.618Z,5.30
2019-02-14T22:42:18.122Z,4.30
2019-02-14T22:44:45.399Z,4.87
2019-02-14T22:47:12.642Z,5.10
2019-02-14T22:49:39.918Z,4.80
2019-02-14T22:52:07.164Z,4.53
2019-02-14T22:54:34.426Z,4.40
2019-02-14T22:57:01.705Z,4.87
2019-02-14T22:59:28.950Z,5.70
2019-02-14T23:01:56.202Z,4.83
2019-02-14T23:04:23.744Z,4.87
2019-02-14T23:06:51.240Z,6.30
2019-02-14T23:09:18.948Z,6.23
2019-02-14T23:11:46.188Z,5.43
2019-02-14T23:14:13.469Z,6.60
2019-02-14T23:16:40.710Z,5.00
2019-02-14T23:19:08.202Z,9.10
2019-02-14T23:21:35.558Z,4.90
2019-02-14T23:24:02.793Z,5.57
2019-02-14T23:26:30.310Z,6.43
2019-02-14T23:28:57.882Z,5.13
2019-02-14T23:31:25.151Z,4.20
2019-02-14T23:33:52.430Z,8.00
2019-02-14T23:36:19.672Z,7.80
2019-02-14T23:38:47.217Z,6.87
2019-02-14T23:41:14.722Z,4.80
2019-02-14T23:43:42.002Z,6.63
2019-02-14T23:46:09.277Z,7.87
2019-02-14T23:48:36.514Z,3.70
2019-02-14T23:51:03.810Z,9.73
2019-02-14T23:53:31.133Z,7.60
2019-02-14T23:55:58.657Z,6.23
2019-02-14T23:58:25.931Z,6.20
